createdAt,value
2017-11-12T00:00:16.814Z,34.70
2017-11-12T00:02:45.658Z,36.47
2017-11-12T00:05:14.512Z,38.93
2017-11-12T00:07:43.391Z,40.03
2017-11-12T00:10:13.019Z,39.87
2017-11-12T00:12:41.873Z,44.10
2017-11-12T00:15:10.718Z,47.93
2017-11-12T00:17:39.581Z,39.23
2017-11-12T00:20:09.197Z,35.80
2017-11-12T00:22:38.077Z,40.57
2017-11-12T00:25:07.699Z,37.63
2017-11-12T00:27:36.540Z,38.30
2017-11-12T00:30:05.377Z,37.40
2017-11-12T00:32:34.573Z,40.57
2017-11-12T00:35:03.424Z,37.10
2017-11-12T00:37:32.267Z,38.70
2017-11-12T00:40:01.122Z,37.73
2017-11-12T00:42:30.725Z,38.63
2017-11-12T00:45:00.347Z,38.53
2017-11-12T00:47:29.192Z,34.30
2017-11-12T00:49:59.901Z,35.13
2017-11-12T00:52:29.471Z,35.40
2017-11-12T00:54:58.308Z,37.20
2017-11-12T00:57:27.148Z,32.80
2017-11-12T00:59:56.756Z,32.03
2017-11-12T01:02:25.588Z,32.53
2017-11-12T01:04:54.436Z,34.93
2017-11-12T01:07:24.399Z,40.10
2017-11-12T01:09:53.271Z,34.97
2017-11-12T01:12:22.120Z,34.47
2017-11-12T01:14:50.953Z,41.40
2017-11-12T01:17:19.803Z,35.00
2017-11-12T01:19:48.640Z,32.73
2017-11-12T01:22:17.505Z,31.40
2017-11-12T01:24:46.468Z,31.27
2017-11-12T01:27:15.356Z,31.17
2017-11-12T01:29:44.197Z,32.10
2017-11-12T01:32:13.139Z,35.37
2017-11-12T01:34:41.993Z,31.80
2017-11-12T01:37:10.838Z,38.47
2017-11-12T01:39:40.441Z,36.10
2017-11-12T01:42:09.897Z,29.40
2017-11-12T01:44:38.789Z,32.00
2017-11-12T01:47:07.613Z,26.63
2017-11-12T01:49:37.247Z,29.63
2017-11-12T01:52:06.088Z,31.97
2017-11-12T01:54:34.925Z,31.20
2017-11-12T01:57:03.779Z,31.20
2017-11-12T01:59:33.397Z,32.23
2017-11-12T02:02:03.015Z,28.53
2017-11-12T02:04:31.856Z,31.87
2017-11-12T02:07:01.697Z,30.70
2017-11-12T02:09:31.309Z,31.20
2017-11-12T02:12:00.932Z,37.07
2017-11-12T02:14:30.088Z,38.43
2017-11-12T02:16:58.925Z,43.23
2017-11-12T02:19:28.128Z,37.40
2017-11-12T02:21:56.956Z,30.90
2017-11-12T02:24:26.824Z,37.00
2017-11-12T02:26:55.677Z,31.07
2017-11-12T02:29:25.290Z,32.20
2017-11-12T02:31:54.909Z,34.33
2017-11-12T02:34:24.524Z,40.40
2017-11-12T02:36:54.111Z,37.33
2017-11-12T02:39:23.754Z,34.70
2017-11-12T02:41:52.608Z,43.30
2017-11-12T02:44:22.232Z,42.47
2017-11-12T02:46:51.088Z,43.27
2017-11-12T02:49:19.922Z,42.37
2017-11-12T02:51:48.774Z,34.13
2017-11-12T02:54:18.378Z,47.37
2017-11-12T02:56:47.995Z,44.17
2017-11-12T02:59:16.861Z,58.37
2017-11-12T03:01:45.705Z,46.20
2017-11-12T03:04:14.544Z,51.47
2017-11-12T03:06:43.390Z,44.50
2017-11-12T03:09:12.248Z,56.60
2017-11-12T03:11:41.842Z,53.37
2017-11-12T03:14:11.471Z,54.50
2017-11-12T03:16:40.656Z,49.60
2017-11-12T03:19:09.511Z,53.80
2017-11-12T03:21:38.357Z,56.50
2017-11-12T03:24:07.208Z,51.10
2017-11-12T03:26:36.841Z,48.13
2017-11-12T03:29:05.691Z,55.27
2017-11-12T03:31:34.532Z,51.93
2017-11-12T03:34:03.372Z,48.80
2017-11-12T03:36:33.121Z,49.50
2017-11-12T03:39:02.734Z,54.60
2017-11-12T03:41:31.568Z,61.70
2017-11-12T03:44:00.409Z,48.07
2017-11-12T03:46:29.264Z,42.17
2017-11-12T03:48:58.107Z,45.70
2017-11-12T03:51:26.938Z,49.47
2017-11-12T03:53:55.814Z,53.70
2017-11-12T03:56:24.672Z,48.43
2017-11-12T03:58:53.509Z,44.27
2017-11-12T04:01:23.356Z,48.70
2017-11-12T04:03:52.338Z,45.30
2017-11-12T04:06:21.169Z,44.60
2017-11-12T04:08:50.021Z,50.60
2017-11-12T04:11:18.874Z,44.37
2017-11-12T04:13:49.291Z,42.20
2017-11-12T04:16:18.128Z,44.83
2017-11-12T04:18:47.604Z,47.10
2017-11-12T04:21:17.228Z,50.97
2017-11-12T04:23:46.197Z,42.13
2017-11-12T04:26:15.056Z,40.43
2017-11-12T04:28:43.885Z,42.73
2017-11-12T04:31:13.484Z,39.10
2017-11-12T04:33:42.553Z,41.17
2017-11-12T04:36:12.196Z,41.13
2017-11-12T04:38:41.043Z,50.10
2017-11-12T04:41:09.869Z,39.73
2017-11-12T04:43:39.469Z,45.10
2017-11-12T04:46:09.090Z,40.60
2017-11-12T04:48:37.941Z,46.97
2017-11-12T04:51:06.791Z,43.13
2017-11-12T04:53:35.624Z,44.03
2017-11-12T04:56:05.235Z,42.40
2017-11-12T04:58:34.529Z,43.80
2017-11-12T05:01:04.138Z,43.77
2017-11-12T05:03:33.771Z,46.57
2017-11-12T05:06:02.607Z,43.83
2017-11-12T05:08:31.455Z,42.00
2017-11-12T05:11:00.299Z,42.10
2017-11-12T05:13:29.132Z,39.17
2017-11-12T05:15:58.423Z,50.73
2017-11-12T05:18:27.365Z,41.77
2017-11-12T05:20:56.199Z,42.37
2017-11-12T05:23:25.020Z,45.13
2017-11-12T05:25:53.864Z,44.70
2017-11-12T05:28:23.492Z,43.80
2017-11-12T05:30:52.353Z,40.60
2017-11-12T05:33:21.960Z,44.67
2017-11-12T05:35:51.592Z,44.07
2017-11-12T05:38:20.452Z,39.07
2017-11-12T05:40:49.279Z,43.97
2017-11-12T05:43:18.135Z,46.37
2017-11-12T05:45:47.748Z,46.47
2017-11-12T05:48:17.357Z,45.90
2017-11-12T05:50:46.500Z,47.87
2017-11-12T05:53:16.153Z,41.93
2017-11-12T05:55:45.692Z,38.17
2017-11-12T05:58:14.536Z,41.53
2017-11-12T06:00:43.374Z,43.37
2017-11-12T06:03:12.212Z,42.37
2017-11-12T06:05:41.073Z,46.03
2017-11-12T06:08:09.900Z,44.27
2017-11-12T06:10:38.785Z,50.17
2017-11-12T06:13:09.127Z,46.90
2017-11-12T06:15:38.764Z,44.50
2017-11-12T06:18:07.610Z,45.27
2017-11-12T06:20:36.455Z,47.53
2017-11-12T06:23:05.300Z,44.10
2017-11-12T06:25:34.167Z,40.67
2017-11-12T06:28:03.008Z,43.10
2017-11-12T06:30:31.843Z,50.80
2017-11-12T06:33:00.692Z,49.30
2017-11-12T06:35:29.549Z,42.07
2017-11-12T06:37:59.153Z,49.40
2017-11-12T06:40:28.765Z,42.77
2017-11-12T06:42:58.372Z,46.53
2017-11-12T06:45:27.225Z,46.50
2017-11-12T06:47:56.073Z,41.17
2017-11-12T06:50:24.925Z,45.17
2017-11-12T06:52:54.534Z,50.90
2017-11-12T06:55:23.383Z,42.93
2017-11-12T06:57:52.216Z,47.40
2017-11-12T07:00:21.069Z,55.73
2017-11-12T07:02:49.900Z,41.53
2017-11-12T07:05:18.755Z,46.10
2017-11-12T07:07:47.586Z,47.13
2017-11-12T07:10:17.208Z,47.13
2017-11-12T07:12:46.812Z,57.90
2017-11-12T07:15:15.682Z,42.47
2017-11-12T07:17:44.526Z,56.70
2017-11-12T07:20:13.366Z,56.70
2017-11-12T07:22:42.242Z,54.17
2017-11-12T07:25:11.084Z,52.97
2017-11-12T07:27:41.208Z,49.90
2017-11-12T07:30:10.143Z,50.20
2017-11-12T07:32:38.955Z,47.33
2017-11-12T07:35:08.556Z,56.40
2017-11-12T07:37:38.197Z,60.67
2017-11-12T07:40:07.068Z,57.90
2017-11-12T07:42:36.676Z,60.67
2017-11-12T07:45:06.324Z,51.87
2017-11-12T07:47:35.160Z,54.37
2017-11-12T07:50:04.773Z,49.57
2017-11-12T07:52:34.531Z,55.80
2017-11-12T07:55:03.385Z,53.03
2017-11-12T07:57:32.221Z,56.53
2017-11-12T08:00:01.862Z,56.03
2017-11-12T08:02:30.697Z,52.27
2017-11-12T08:04:59.551Z,75.13
2017-11-12T08:07:28.402Z,51.87
2017-11-12T08:09:58.012Z,54.57
2017-11-12T08:12:27.640Z,50.53
2017-11-12T08:14:57.295Z,60.50
2017-11-12T08:17:26.905Z,53.57
2017-11-12T08:19:55.753Z,57.90
2017-11-12T08:22:24.606Z,49.10
2017-11-12T08:24:54.232Z,56.40
2017-11-12T08:27:23.398Z,56.07
2017-11-12T08:29:52.494Z,51.27
2017-11-12T08:32:21.383Z,57.70
2017-11-12T08:34:50.256Z,56.10
2017-11-12T08:37:19.100Z,64.40
2017-11-12T08:39:47.959Z,59.03
2017-11-12T08:42:17.110Z,63.23
2017-11-12T08:44:45.974Z,65.03
2017-11-12T08:47:14.792Z,55.87
2017-11-12T08:49:43.691Z,54.73
2017-11-12T08:52:12.521Z,60.50
2017-11-12T08:54:42.119Z,71.83
2017-11-12T08:57:10.979Z,61.90
2017-11-12T08:59:39.818Z,60.27
2017-11-12T09:02:08.664Z,56.17
2017-11-12T09:04:37.508Z,58.10
2017-11-12T09:07:06.340Z,68.57
2017-11-12T09:09:35.185Z,66.33
2017-11-12T09:12:04.051Z,57.90
2017-11-12T09:14:33.665Z,59.73
2017-11-12T09:17:03.295Z,65.87
2017-11-12T09:19:32.165Z,61.73
2017-11-12T09:22:01.019Z,66.47
2017-11-12T09:24:29.856Z,66.40
2017-11-12T09:26:58.696Z,49.33
2017-11-12T09:29:29.055Z,53.67
2017-11-12T09:31:57.938Z,49.13
2017-11-12T09:34:27.559Z,48.70
2017-11-12T09:36:57.157Z,39.13
2017-11-12T09:39:26.751Z,47.50
2017-11-12T09:41:56.381Z,56.97
2017-11-12T09:44:25.241Z,57.73
2017-11-12T09:46:54.877Z,43.00
2017-11-12T09:49:23.726Z,45.90
2017-11-12T09:51:52.627Z,45.80
2017-11-12T09:54:22.254Z,43.70
2017-11-12T09:56:51.120Z,47.17
2017-11-12T09:59:19.949Z,40.87
2017-11-12T10:01:48.835Z,41.00
2017-11-12T10:04:17.662Z,38.17
2017-11-12T10:06:46.513Z,35.63
2017-11-12T10:09:16.124Z,38.20
2017-11-12T10:11:45.724Z,29.90
2017-11-12T10:14:15.349Z,28.07
2017-11-12T10:16:44.207Z,35.80
2017-11-12T10:19:13.862Z,27.40
2017-11-12T10:21:42.728Z,26.73
2017-11-12T10:24:11.616Z,26.53
2017-11-12T10:26:41.276Z,25.00
2017-11-12T10:29:10.122Z,24.70
2017-11-12T10:31:38.979Z,20.60
2017-11-12T10:34:08.705Z,24.90
2017-11-12T10:36:38.339Z,19.10
2017-11-12T10:39:07.200Z,29.47
2017-11-12T10:41:36.856Z,23.03
2017-11-12T10:44:05.734Z,28.67
2017-11-12T10:46:34.584Z,24.37
2017-11-12T10:49:04.246Z,24.87
2017-11-12T10:51:33.130Z,23.10
2017-11-12T10:54:02.025Z,22.10
2017-11-12T10:56:31.716Z,22.47
2017-11-12T10:59:01.099Z,25.60
2017-11-12T11:01:29.952Z,20.10
2017-11-12T11:03:58.837Z,16.43
2017-11-12T11:06:28.532Z,27.30
2017-11-12T11:08:58.784Z,13.40
2017-11-12T11:11:27.660Z,15.37
2017-11-12T11:13:56.652Z,10.50
2017-11-12T11:16:26.266Z,10.50
2017-11-12T11:18:55.109Z,9.57
2017-11-12T11:21:24.916Z,11.53
2017-11-12T11:23:53.777Z,12.63
2017-11-12T11:26:22.714Z,9.80
2017-11-12T11:28:52.507Z,11.13
2017-11-12T11:31:21.382Z,10.53
2017-11-12T11:33:50.266Z,10.60
2017-11-12T11:36:19.610Z,11.10
2017-11-12T11:38:48.511Z,12.47
2017-11-12T11:41:18.736Z,14.87
2017-11-12T11:43:48.331Z,15.63
2017-11-12T11:46:18.031Z,14.33
2017-11-12T11:48:47.673Z,15.70
2017-11-12T11:51:16.584Z,16.40
2017-11-12T11:53:46.179Z,13.53
2017-11-12T11:56:15.076Z,12.53
2017-11-12T11:58:43.926Z,18.57
2017-11-12T12:01:13.531Z,11.40
2017-11-12T12:03:43.151Z,12.53
2017-11-12T12:06:12.124Z,15.93
2017-11-12T12:08:40.990Z,25.00
2017-11-12T12:11:09.936Z,14.93
2017-11-12T12:13:38.795Z,12.17
2017-11-12T12:16:08.439Z,15.40
2017-11-12T12:18:37.295Z,17.77
2017-11-12T12:21:06.922Z,19.03
2017-11-12T12:23:35.811Z,14.60
2017-11-12T12:26:04.656Z,13.50
2017-11-12T12:28:33.490Z,14.03
2017-11-12T12:31:02.353Z,16.00
2017-11-12T12:33:31.287Z,16.03
2017-11-12T12:36:00.798Z,11.43
2017-11-12T12:38:29.647Z,13.60
2017-11-12T12:40:58.534Z,15.33
2017-11-12T12:43:28.155Z,13.33
2017-11-12T12:45:57.781Z,13.47
2017-11-12T12:48:26.625Z,13.27
2017-11-12T12:50:55.496Z,11.83
2017-11-12T12:53:25.894Z,13.37
2017-11-12T12:55:54.764Z,15.07
2017-11-12T12:58:23.613Z,14.87
2017-11-12T13:00:53.268Z,15.43
2017-11-12T13:03:22.151Z,15.43
2017-11-12T13:05:51.375Z,16.30
2017-11-12T13:08:20.253Z,18.43
2017-11-12T13:10:49.123Z,16.00
2017-11-12T13:13:18.730Z,14.27
2017-11-12T13:15:47.611Z,14.40
2017-11-12T13:18:16.473Z,13.80
2017-11-12T13:20:46.135Z,16.00
2017-11-12T13:23:15.000Z,14.53
2017-11-12T13:25:43.882Z,13.60
2017-11-12T13:28:14.358Z,17.30
2017-11-12T13:30:43.201Z,14.67
2017-11-12T13:33:13.017Z,15.50
2017-11-12T13:35:41.900Z,19.23
2017-11-12T13:38:11.523Z,19.73
2017-11-12T13:40:40.464Z,18.87
2017-11-12T13:43:09.320Z,18.37
2017-11-12T13:45:38.247Z,21.17
2017-11-12T13:48:07.092Z,19.77
2017-11-12T13:50:36.094Z,19.73
2017-11-12T13:53:05.007Z,24.50
2017-11-12T13:55:34.074Z,25.80
2017-11-12T13:58:02.943Z,20.53
2017-11-12T14:00:31.784Z,24.60
2017-11-12T14:03:00.680Z,24.00
2017-11-12T14:05:29.542Z,21.40
2017-11-12T14:07:59.611Z,19.73
2017-11-12T14:10:29.573Z,31.27
2017-11-12T14:12:59.209Z,21.03
2017-11-12T14:15:28.048Z,22.40
2017-11-12T14:17:56.885Z,20.57
2017-11-12T14:20:25.755Z,20.97
2017-11-12T14:22:54.948Z,21.97
2017-11-12T14:25:24.574Z,22.63
2017-11-12T14:27:53.403Z,24.40
2017-11-12T14:30:22.755Z,22.60
2017-11-12T14:32:52.470Z,20.77
2017-11-12T14:35:21.668Z,20.73
2017-11-12T14:37:51.324Z,17.80
2017-11-12T14:40:20.157Z,17.40
2017-11-12T14:42:49.793Z,21.33
2017-11-12T14:45:18.867Z,18.60
2017-11-12T14:47:48.141Z,23.60
2017-11-12T14:50:17.753Z,17.80
2017-11-12T14:52:47.387Z,20.40
2017-11-12T14:55:16.236Z,18.07
2017-11-12T14:57:45.126Z,17.03
2017-11-12T15:00:15.445Z,19.53
2017-11-12T15:02:44.306Z,22.17
2017-11-12T15:05:13.965Z,16.57
2017-11-12T15:07:42.789Z,17.30
2017-11-12T15:10:12.422Z,19.63
2017-11-12T15:12:42.057Z,17.60
2017-11-12T15:15:10.901Z,26.77
2017-11-12T15:17:39.779Z,19.63
2017-11-12T15:20:08.630Z,19.07
2017-11-12T15:22:37.498Z,17.63
2017-11-12T15:25:06.964Z,20.83
2017-11-12T15:27:35.854Z,17.93
2017-11-12T15:30:05.160Z,19.50
2017-11-12T15:32:34.792Z,21.40
2017-11-12T15:35:04.409Z,19.30
2017-11-12T15:37:34.034Z,23.83
2017-11-12T15:40:02.911Z,21.47
2017-11-12T15:42:32.482Z,20.43
2017-11-12T15:45:01.401Z,18.83
2017-11-12T15:47:31.042Z,19.00
2017-11-12T15:49:59.892Z,21.67
2017-11-12T15:52:28.786Z,18.10
2017-11-12T15:54:58.458Z,19.50
2017-11-12T15:57:27.313Z,20.47
2017-11-12T15:59:57.744Z,19.03
2017-11-12T16:02:27.612Z,20.60
2017-11-12T16:04:56.454Z,20.00
2017-11-12T16:07:25.337Z,22.50
2017-11-12T16:09:54.441Z,25.53
2017-11-12T16:12:23.317Z,22.43
2017-11-12T16:14:52.952Z,24.50
2017-11-12T16:17:22.624Z,21.50
2017-11-12T16:19:51.490Z,19.70
2017-11-12T16:22:20.331Z,24.30
2017-11-12T16:24:49.941Z,24.97
2017-11-12T16:27:18.788Z,31.63
2017-11-12T16:29:47.623Z,24.10
2017-11-12T16:32:16.458Z,26.97
2017-11-12T16:34:45.317Z,29.97
2017-11-12T16:37:14.779Z,25.67
2017-11-12T16:39:43.619Z,21.77
2017-11-12T16:42:12.492Z,25.30
2017-11-12T16:44:42.114Z,19.67
2017-11-12T16:47:11.020Z,15.33
2017-11-12T16:49:39.877Z,14.70
2017-11-12T16:52:09.521Z,12.73
2017-11-12T16:54:38.363Z,16.40
2017-11-12T16:57:07.188Z,16.70
2017-11-12T16:59:36.098Z,12.33
2017-11-12T17:02:05.717Z,11.57
2017-11-12T17:04:34.592Z,16.27
2017-11-12T17:07:04.239Z,8.33
2017-11-12T17:09:33.115Z,11.00
2017-11-12T17:12:02.476Z,10.47
2017-11-12T17:14:31.545Z,9.50
2017-11-12T17:17:01.204Z,9.23
2017-11-12T17:19:30.831Z,9.57
2017-11-12T17:21:59.694Z,8.37
2017-11-12T17:24:29.388Z,8.33
2017-11-12T17:26:58.218Z,8.37
2017-11-12T17:29:27.068Z,8.50
2017-11-12T17:31:56.704Z,8.70
2017-11-12T17:34:25.565Z,7.17
2017-11-12T17:36:55.196Z,8.87
2017-11-12T17:39:24.081Z,8.10
2017-11-12T17:41:53.662Z,7.23
2017-11-12T17:44:23.788Z,8.00
2017-11-12T17:46:53.490Z,8.37
2017-11-12T17:49:22.405Z,8.03
2017-11-12T17:51:52.004Z,7.40
2017-11-12T17:54:22.558Z,8.90
2017-11-12T17:56:51.542Z,8.70
2017-11-12T17:59:21.174Z,7.30
2017-11-12T18:01:50.021Z,11.07
2017-11-12T18:04:19.653Z,9.20
2017-11-12T18:06:49.500Z,8.57
2017-11-12T18:09:18.362Z,7.87
2017-11-12T18:11:47.188Z,8.67
2017-11-12T18:14:16.113Z,9.97
2017-11-12T18:16:44.930Z,11.80
2017-11-12T18:19:13.785Z,11.00
2017-11-12T18:21:43.005Z,12.17
2017-11-12T18:24:11.893Z,13.00
2017-11-12T18:26:40.807Z,10.53
2017-11-12T18:29:09.728Z,11.77
2017-11-12T18:31:38.573Z,13.03
2017-11-12T18:34:07.449Z,15.67
2017-11-12T18:36:36.340Z,12.40
2017-11-12T18:39:05.210Z,11.27
2017-11-12T18:41:34.881Z,14.73
2017-11-12T18:44:03.757Z,11.17
2017-11-12T18:46:33.111Z,10.67
2017-11-12T18:49:01.968Z,11.20
2017-11-12T18:51:30.830Z,11.80
2017-11-12T18:53:59.751Z,14.47
2017-11-12T18:56:32.122Z,13.50
2017-11-12T18:59:05.988Z,12.90
2017-11-12T19:14:57.931Z,15.13
2017-11-12T19:17:31.508Z,13.70
2017-11-12T19:20:08.243Z,11.63
2017-11-12T19:22:37.094Z,14.93
2017-11-12T19:25:11.747Z,13.10
2017-11-12T19:27:40.603Z,13.23
2017-11-12T19:30:09.885Z,10.07
2017-11-12T19:32:38.914Z,11.37
2017-11-12T19:35:07.758Z,11.50
2017-11-12T19:37:37.580Z,12.27
2017-11-12T19:40:08.038Z,10.20
2017-11-12T19:42:39.874Z,13.03
2017-11-12T19:45:11.525Z,8.50
2017-11-12T19:47:42.269Z,8.50
2017-11-12T19:50:18.902Z,10.60
2017-11-12T19:52:52.050Z,10.07
2017-11-12T19:55:25.898Z,9.40
2017-11-12T19:57:57.557Z,10.80
2017-11-12T20:00:27.715Z,9.33
2017-11-12T20:03:01.134Z,9.97
2017-11-12T20:05:32.736Z,10.13
2017-11-12T20:08:13.375Z,10.40
2017-11-12T20:10:44.829Z,9.60
2017-11-12T20:13:14.408Z,9.70
2017-11-12T20:15:45.949Z,9.97
2017-11-12T20:18:17.881Z,10.63
2017-11-12T20:20:51.078Z,9.33
2017-11-12T20:23:20.564Z,14.60
2017-11-12T20:35:34.422Z,10.23
2017-11-12T20:38:04.194Z,11.40
2017-11-12T20:40:33.916Z,8.10
2017-11-12T20:43:03.980Z,9.70
2017-11-12T20:45:32.846Z,8.50
2017-11-12T20:48:01.680Z,8.10
2017-11-12T20:50:30.853Z,9.43
2017-11-12T20:52:59.742Z,8.37
2017-11-12T20:55:29.536Z,10.03
2017-11-12T20:57:58.468Z,11.50
2017-11-12T21:00:29.056Z,9.87
2017-11-12T21:02:58.206Z,17.87
2017-11-12T21:18:27.108Z,8.10
2017-11-12T21:20:57.612Z,8.40
2017-11-12T21:37:03.289Z,8.83
2017-11-12T21:39:32.109Z,7.53
2017-11-12T21:42:01.807Z,9.70
2017-11-12T21:44:30.646Z,7.03
2017-11-12T21:46:59.751Z,7.20
2017-11-12T21:49:28.574Z,8.20
2017-11-12T21:51:57.420Z,7.67
2017-11-12T21:54:26.406Z,9.00
2017-11-12T21:56:55.298Z,9.90
2017-11-12T21:59:24.204Z,11.30
2017-11-12T22:01:53.993Z,11.93
2017-11-12T22:04:23.609Z,11.03
2017-11-12T22:06:52.455Z,9.30
2017-11-12T22:09:21.314Z,9.40
2017-11-12T22:11:50.152Z,14.53
2017-11-12T22:14:18.977Z,8.37
2017-11-12T22:16:47.820Z,14.90
2017-11-12T22:19:16.661Z,7.73
2017-11-12T22:21:45.521Z,11.53
2017-11-12T22:24:15.140Z,11.77
2017-11-12T22:26:44.049Z,8.80
2017-11-12T22:29:12.886Z,8.67
2017-11-12T22:31:41.761Z,7.20
2017-11-12T22:34:10.602Z,9.63
2017-11-12T22:36:39.441Z,7.80
2017-11-12T22:39:08.279Z,8.63
2017-11-12T22:41:37.114Z,12.60
2017-11-12T22:44:05.956Z,9.33
2017-11-12T22:46:34.777Z,8.13
2017-11-12T22:49:03.633Z,10.00
2017-11-12T22:51:32.445Z,7.60
2017-11-12T22:54:01.535Z,7.40
2017-11-12T22:56:30.386Z,7.23
2017-11-12T22:58:59.206Z,6.87
2017-11-12T23:01:28.047Z,6.27
2017-11-12T23:03:56.946Z,6.77
2017-11-12T23:06:25.784Z,7.57
2017-11-12T23:08:55.618Z,8.47
2017-11-12T23:11:24.458Z,6.70
2017-11-12T23:13:53.292Z,9.70
2017-11-12T23:16:22.139Z,7.23
2017-11-12T23:18:50.956Z,7.73
2017-11-12T23:21:19.801Z,9.00
2017-11-12T23:23:48.627Z,6.03
2017-11-12T23:26:18.383Z,5.93
2017-11-12T23:28:47.236Z,7.80
2017-11-12T23:31:16.084Z,6.43
2017-11-12T23:33:44.909Z,11.73
2017-11-12T23:36:14.302Z,10.23
2017-11-12T23:38:43.152Z,8.43
2017-11-12T23:41:11.968Z,7.03
2017-11-12T23:43:41.018Z,6.60
2017-11-12T23:46:10.632Z,7.43
2017-11-12T23:48:39.819Z,6.73
2017-11-12T23:51:09.994Z,7.03
2017-11-12T23:53:38.840Z,8.20
2017-11-12T23:56:08.428Z,7.63
2017-11-12T23:58:38.020Z,6.27
